createdAt,value
2019-05-07T00:02:59.679Z,97446.08
2019-05-07T00:06:06.745Z,97442.20
2019-05-07T00:09:15.705Z,97438.71
2019-05-07T00:12:23.047Z,97442.91
2019-05-07T00:15:29.771Z,97436.19
2019-05-07T00:18:36.194Z,97439.09
2019-05-07T00:21:42.715Z,97442.53
2019-05-07T00:24:49.084Z,97437.03
2019-05-07T00:27:55.445Z,97439.50
2019-05-07T00:31:02.846Z,97436.36
2019-05-07T00:34:09.705Z,97437.11
2019-05-07T00:37:32.357Z,97435.82
2019-05-07T00:40:57.719Z,97435.80
2019-05-07T00:44:05.534Z,97431.16
2019-05-07T00:47:12.759Z,97434.13
2019-05-07T00:50:25.129Z,97429.81
2019-05-07T00:53:32.875Z,97432.36
2019-05-07T00:56:39.391Z,97435.25
2019-05-07T00:59:45.801Z,97425.28
2019-05-07T01:02:52.724Z,97428.61
2019-05-07T01:05:59.322Z,97425.83
2019-05-07T01:09:09.099Z,97419.84
2019-05-07T01:12:15.557Z,97425.33
2019-05-07T01:15:31.076Z,97426.09
2019-05-07T01:18:32.265Z,97427.38
2019-05-07T01:21:38.560Z,97430.39
2019-05-07T01:24:45.059Z,97420.33
2019-05-07T01:27:53.268Z,97421.62
2019-05-07T01:31:02.099Z,97425.78
2019-05-07T01:34:23.159Z,97420.33
2019-05-07T01:37:29.769Z,97430.39
2019-05-07T01:40:36.547Z,97423.27
2019-05-07T01:43:43.090Z,97417.83
2019-05-07T01:46:49.879Z,97421.63
2019-05-07T01:49:56.783Z,97421.19
2019-05-07T01:53:03.870Z,97420.36
2019-05-07T01:56:12.421Z,97422.89
2019-05-07T01:59:18.658Z,97427.51
2019-05-07T02:02:32.047Z,97428.70
2019-05-07T02:05:45.628Z,97424.13
2019-05-07T02:09:03.842Z,97426.63
2019-05-07T02:12:17.689Z,97413.62
2019-05-07T02:15:24.104Z,97412.37
2019-05-07T02:18:32.561Z,97406.38
2019-05-07T02:21:38.894Z,97410.25
2019-05-07T02:24:45.373Z,97406.38
2019-05-07T02:27:52.804Z,97406.41
2019-05-07T02:31:00.382Z,97404.71
2019-05-07T02:34:06.818Z,97407.22
2019-05-07T02:37:16.550Z,97404.33
2019-05-07T02:40:28.761Z,97404.69
2019-05-07T02:43:35.225Z,97405.97
2019-05-07T02:46:49.158Z,97400.47
2019-05-07T02:50:03.348Z,97404.33
2019-05-07T02:53:18.099Z,97407.19
2019-05-07T02:59:56.665Z,97401.72
2019-05-07T03:03:04.083Z,97398.72
2019-05-07T03:06:13.727Z,97397.95
2019-05-07T03:09:22.766Z,97397.07
2019-05-07T03:12:29.074Z,97395.35
2019-05-07T03:15:35.637Z,97394.07
2019-05-07T03:18:43.892Z,97391.94
2019-05-07T03:21:54.329Z,97395.37
2019-05-07T03:25:07.077Z,97389.46
2019-05-07T03:28:13.724Z,97395.02
2019-05-07T03:31:38.227Z,97400.05
2019-05-07T03:34:57.183Z,97401.25
2019-05-07T03:38:03.472Z,97397.50
2019-05-07T03:41:08.746Z,97401.66
2019-05-07T03:44:36.992Z,97405.02
2019-05-07T03:47:45.869Z,97401.21
2019-05-07T03:50:53.269Z,97403.30
2019-05-07T03:54:02.450Z,97404.09
2019-05-07T03:57:11.068Z,97408.73
2019-05-07T04:00:16.288Z,97408.42
2019-05-07T04:03:24.239Z,97405.80
2019-05-07T04:06:33.165Z,97407.46
2019-05-07T04:09:39.228Z,97416.30
2019-05-07T04:12:45.623Z,97408.24
2019-05-07T04:15:52.658Z,97404.45
2019-05-07T04:18:59.342Z,97410.26
2019-05-07T04:22:05.784Z,97413.30
2019-05-07T04:25:34.472Z,97410.23
2019-05-07T04:28:59.926Z,97411.87
2019-05-07T04:32:06.952Z,97411.86
2019-05-07T04:35:19.444Z,97414.41
2019-05-07T04:38:25.796Z,97417.77
2019-05-07T04:41:33.001Z,97419.05
2019-05-07T04:44:39.707Z,97422.38
2019-05-07T04:47:47.767Z,97425.72
2019-05-07T04:50:56.820Z,97429.53
2019-05-07T04:54:03.933Z,97434.56
2019-05-07T04:57:25.853Z,97433.67
2019-05-07T05:00:33.607Z,97439.97
2019-05-07T05:03:43.447Z,97442.92
2019-05-07T05:06:48.482Z,97442.95
2019-05-07T05:09:55.085Z,97444.62
2019-05-07T05:13:03.220Z,97433.56
2019-05-07T05:16:28.043Z,97441.57
2019-05-07T05:19:34.659Z,97442.37
2019-05-07T05:23:02.384Z,97439.37
2019-05-07T05:26:09.053Z,97444.36
2019-05-07T05:29:16.129Z,97440.95
2019-05-07T05:32:22.782Z,97442.52
2019-05-07T05:35:29.253Z,97445.90
2019-05-07T05:38:35.981Z,97450.47
2019-05-07T05:41:44.759Z,97449.61
2019-05-07T05:44:52.458Z,97456.30
2019-05-07T05:48:04.753Z,97452.81
2019-05-07T05:51:17.130Z,97459.95
2019-05-07T05:54:32.669Z,97461.98
2019-05-07T05:57:49.117Z,97464.91
2019-05-07T06:01:13.408Z,97455.85
2019-05-07T06:04:29.508Z,97460.39
2019-05-07T06:07:42.756Z,97464.16
2019-05-07T06:11:11.860Z,97464.95
2019-05-07T06:14:35.255Z,97465.69
2019-05-07T06:21:24.427Z,97470.75
2019-05-07T06:24:43.690Z,97467.53
2019-05-07T06:27:52.592Z,97466.30
2019-05-07T06:30:59.268Z,97466.11
2019-05-07T06:34:06.005Z,97461.21
2019-05-07T06:37:13.070Z,97463.97
2019-05-07T06:40:42.469Z,97468.30
2019-05-07T06:43:56.346Z,97471.13
2019-05-07T06:47:02.890Z,97468.98
2019-05-07T06:50:09.462Z,97476.58
2019-05-07T06:53:16.045Z,97474.02
2019-05-07T06:56:23.135Z,97475.57
2019-05-07T06:59:35.548Z,97480.02
2019-05-07T07:02:52.471Z,97480.18
2019-05-07T07:06:08.356Z,97477.95
2019-05-07T07:09:22.550Z,97474.30
2019-05-07T07:12:32.957Z,97480.21
2019-05-07T07:15:39.019Z,97470.47
2019-05-07T07:18:51.990Z,97470.11
2019-05-07T07:21:53.643Z,97463.71
2019-05-07T07:25:02.380Z,97472.51
2019-05-07T07:28:08.453Z,97471.66
2019-05-07T07:31:32.034Z,97470.41
2019-05-07T07:34:46.127Z,97470.20
2019-05-07T07:37:53.116Z,97468.47
2019-05-07T07:41:05.510Z,97466.09
2019-05-07T07:44:13.234Z,97469.63
2019-05-07T07:47:22.232Z,97477.61
2019-05-07T07:50:28.019Z,97467.78
2019-05-07T07:53:35.502Z,97464.86
2019-05-07T07:57:06.777Z,97475.09
2019-05-07T08:00:42.856Z,97466.92
2019-05-07T08:03:52.261Z,97479.28
2019-05-07T08:07:05.023Z,97471.89
2019-05-07T08:10:12.913Z,97468.64
2019-05-07T08:13:19.514Z,97463.66
2019-05-07T08:16:26.279Z,97468.23
2019-05-07T08:19:33.066Z,97469.97
2019-05-07T08:22:39.476Z,97466.48
2019-05-07T08:25:48.680Z,97461.77
2019-05-07T08:28:55.151Z,97461.63
2019-05-07T08:32:19.436Z,97454.06
2019-05-07T08:35:39.063Z,97450.08
2019-05-07T08:38:53.262Z,97458.72
2019-05-07T08:42:02.069Z,97457.77
2019-05-07T08:45:27.701Z,97455.87
2019-05-07T08:48:39.239Z,97459.70
2019-05-07T08:51:48.199Z,97451.70
2019-05-07T08:54:54.847Z,97453.68
2019-05-07T08:58:02.280Z,97457.94
2019-05-07T09:01:08.919Z,97457.02
2019-05-07T09:04:15.368Z,97450.28
2019-05-07T09:07:23.125Z,97441.92
2019-05-07T09:10:29.634Z,97441.13
2019-05-07T09:13:36.194Z,97441.74
2019-05-07T09:16:43.015Z,97438.05
2019-05-07T09:19:54.391Z,97443.00
2019-05-07T09:22:58.814Z,97433.14
2019-05-07T09:26:06.914Z,97434.02
2019-05-07T09:29:44.716Z,97442.84
2019-05-07T09:33:09.731Z,97436.43
2019-05-07T09:36:24.686Z,97439.03
2019-05-07T09:39:32.472Z,97435.55
2019-05-07T09:42:39.090Z,97434.36
2019-05-07T09:45:48.829Z,97431.97
2019-05-07T09:48:56.506Z,97431.51
2019-05-07T09:52:05.893Z,97422.56
2019-05-07T09:55:16.799Z,97426.37
2019-05-07T09:58:35.292Z,97428.66
2019-05-07T10:01:31.899Z,97430.16
2019-05-07T10:04:38.618Z,97418.83
2019-05-07T10:07:45.147Z,97427.20
2019-05-07T10:10:53.205Z,97417.45
2019-05-07T10:14:04.617Z,97427.41
2019-05-07T10:17:17.108Z,97426.04
2019-05-07T10:20:24.445Z,97421.21
2019-05-07T10:23:30.899Z,97420.62
2019-05-07T10:26:40.152Z,97413.81
2019-05-07T10:29:46.790Z,97417.14
2019-05-07T10:32:53.425Z,97418.84
2019-05-07T10:36:02.147Z,97414.00
2019-05-07T10:39:08.980Z,97405.14
2019-05-07T10:42:15.709Z,97401.49
2019-05-07T10:45:36.387Z,97403.58
2019-05-07T10:49:02.010Z,97399.41
2019-05-07T10:52:08.524Z,97403.52
2019-05-07T10:55:16.286Z,97401.55
2019-05-07T10:58:25.269Z,97398.87
2019-05-07T11:01:38.254Z,97392.44
2019-05-07T11:04:45.967Z,97394.76
2019-05-07T11:07:53.895Z,97395.84
2019-05-07T11:11:02.705Z,97398.50
2019-05-07T11:14:09.140Z,97400.73
2019-05-07T11:17:34.525Z,97395.19
2019-05-07T11:20:49.922Z,97394.25
2019-05-07T11:23:49.208Z,97400.88
2019-05-07T11:26:57.471Z,97400.36
2019-05-07T11:30:04.388Z,97396.52
2019-05-07T11:33:12.867Z,97398.62
2019-05-07T11:36:19.106Z,97390.02
2019-05-07T11:39:25.494Z,97398.59
2019-05-07T11:42:51.987Z,97398.53
2019-05-07T11:46:08.506Z,97397.84
2019-05-07T11:49:25.412Z,97396.75
2019-05-07T11:52:35.944Z,97396.56
2019-05-07T11:55:42.651Z,97396.63
2019-05-07T11:58:52.777Z,97392.98
2019-05-07T12:02:02.078Z,97384.08
2019-05-07T12:05:12.146Z,97385.73
2019-05-07T12:08:18.639Z,97382.78
2019-05-07T12:11:25.111Z,97391.45
2019-05-07T12:14:34.947Z,97382.71
2019-05-07T12:17:42.818Z,97377.98
2019-05-07T12:20:49.554Z,97382.11
2019-05-07T12:23:56.200Z,97376.57
2019-05-07T12:27:02.803Z,97377.75
2019-05-07T12:30:12.168Z,97378.36
2019-05-07T12:33:27.256Z,97376.67
2019-05-07T12:36:33.741Z,97372.60
2019-05-07T12:39:42.272Z,97371.09
2019-05-07T12:42:48.456Z,97367.97
2019-05-07T12:45:55.404Z,97366.30
2019-05-07T12:49:03.170Z,97362.21
2019-05-07T12:52:23.162Z,97360.49
2019-05-07T12:55:53.325Z,97356.05
2019-05-07T12:59:02.134Z,97349.83
2019-05-07T13:02:40.162Z,97346.23
2019-05-07T13:05:41.801Z,97338.84
2019-05-07T13:08:48.340Z,97346.23
2019-05-07T13:11:54.821Z,97350.25
2019-05-07T13:15:02.975Z,97346.84
2019-05-07T13:18:12.698Z,97337.76
2019-05-07T13:21:22.519Z,97341.52
2019-05-07T13:24:28.987Z,97335.34
2019-05-07T13:27:35.388Z,97338.39
2019-05-07T13:35:27.565Z,97337.84
2019-05-07T13:39:03.242Z,97331.77
2019-05-07T13:42:31.977Z,97330.00
2019-05-07T13:45:48.975Z,97330.02
2019-05-07T13:48:55.238Z,97331.35
2019-05-07T13:52:03.824Z,97329.41
2019-05-07T13:55:12.720Z,97326.52
2019-05-07T13:58:22.849Z,97326.53
2019-05-07T14:01:44.612Z,97323.56
2019-05-07T14:04:52.635Z,97317.41
2019-05-07T14:07:59.362Z,97313.25
2019-05-07T14:11:06.017Z,97307.67
2019-05-07T14:14:12.875Z,97305.95
2019-05-07T14:17:21.830Z,97302.69
2019-05-07T14:20:28.324Z,97303.94
2019-05-07T14:23:34.964Z,97305.52
2019-05-07T14:26:42.313Z,97301.54
2019-05-07T14:29:51.777Z,97298.43
2019-05-07T14:33:14.913Z,97299.16
2019-05-07T14:36:26.156Z,97292.17
2019-05-07T14:39:33.260Z,97290.88
2019-05-07T14:42:44.996Z,97291.86
2019-05-07T14:45:52.217Z,97287.55
2019-05-07T14:48:58.876Z,97290.66
2019-05-07T14:52:05.487Z,97289.92
2019-05-07T14:55:13.797Z,97283.38
2019-05-07T14:58:20.484Z,97275.72
2019-05-07T15:01:27.134Z,97278.97
2019-05-07T15:04:34.806Z,97275.21
2019-05-07T15:07:41.939Z,97274.72
2019-05-07T15:10:49.634Z,97274.97
2019-05-07T15:13:56.179Z,97273.93
2019-05-07T15:17:28.390Z,97274.69
2019-05-07T15:20:35.825Z,97268.51
2019-05-07T15:23:43.350Z,97270.62
2019-05-07T15:26:51.485Z,97264.23
2019-05-07T15:29:58.069Z,97268.27
2019-05-07T15:33:05.646Z,97267.48
2019-05-07T15:36:12.337Z,97266.64
2019-05-07T15:39:19.129Z,97258.78
2019-05-07T15:42:25.687Z,97269.64
2019-05-07T15:45:32.197Z,97263.88
2019-05-07T15:48:38.878Z,97262.42
2019-05-07T15:51:45.556Z,97270.03
2019-05-07T15:54:52.318Z,97268.43
2019-05-07T15:58:00.362Z,97263.41
2019-05-07T16:01:06.865Z,97260.06
2019-05-07T16:04:22.190Z,97262.42
2019-05-07T16:07:22.471Z,97263.90
2019-05-07T16:10:29.074Z,97258.55
2019-05-07T16:13:37.846Z,97253.42
2019-05-07T16:16:46.447Z,97247.97
2019-05-07T16:19:55.032Z,97250.89
2019-05-07T16:23:13.937Z,97250.89
2019-05-07T16:26:12.955Z,97247.14
2019-05-07T16:29:19.629Z,97245.12
2019-05-07T16:32:26.319Z,97247.73
2019-05-07T16:35:32.850Z,97246.20
2019-05-07T16:38:39.349Z,97238.81
2019-05-07T16:41:45.867Z,97242.84
2019-05-07T16:44:52.433Z,97241.59
2019-05-07T16:48:00.471Z,97242.53
2019-05-07T16:51:07.367Z,97242.56
2019-05-07T16:54:13.828Z,97242.95
2019-05-07T16:57:51.653Z,97244.86
2019-05-07T17:01:01.995Z,97244.38
2019-05-07T17:04:08.891Z,97247.39
2019-05-07T17:07:17.165Z,97245.11
2019-05-07T17:10:24.090Z,97242.82
2019-05-07T17:13:31.952Z,97244.20
2019-05-07T17:16:38.668Z,97242.27
2019-05-07T17:19:45.201Z,97242.85
2019-05-07T17:22:51.999Z,97244.30
2019-05-07T17:25:58.814Z,97242.58
2019-05-07T17:29:05.318Z,97246.31
2019-05-07T17:32:12.336Z,97240.61
2019-05-07T17:35:19.223Z,97245.03
2019-05-07T17:38:25.916Z,97242.37
2019-05-07T17:41:32.493Z,97237.19
2019-05-07T17:44:39.009Z,97237.80
2019-05-07T17:47:45.672Z,97229.47
2019-05-07T17:51:17.506Z,97235.52
2019-05-07T17:54:25.758Z,97233.85
2019-05-07T17:57:33.451Z,97234.37
2019-05-07T18:00:42.149Z,97231.92
2019-05-07T18:03:48.662Z,97237.15
2019-05-07T18:06:55.045Z,97238.22
2019-05-07T18:10:02.352Z,97242.99
2019-05-07T18:13:11.734Z,97234.72
2019-05-07T18:16:35.800Z,97234.59
2019-05-07T18:19:43.190Z,97240.78
2019-05-07T18:22:52.041Z,97241.46
2019-05-07T18:25:59.058Z,97242.36
2019-05-07T18:29:05.727Z,97237.67
2019-05-07T18:32:12.515Z,97236.16
2019-05-07T18:35:19.284Z,97237.53
2019-05-07T18:38:25.777Z,97235.41
2019-05-07T18:41:32.710Z,97234.98
2019-05-07T18:44:41.583Z,97230.49
2019-05-07T18:47:48.534Z,97233.89
2019-05-07T18:50:55.046Z,97230.02
2019-05-07T18:54:02.423Z,97231.77
2019-05-07T18:57:09.088Z,97232.00
2019-05-07T19:00:23.817Z,97242.60
2019-05-07T19:03:32.359Z,97242.78
2019-05-07T19:06:38.690Z,97234.73
2019-05-07T19:09:47.765Z,97241.78
2019-05-07T19:12:53.724Z,97236.58
2019-05-07T19:16:02.861Z,97234.48
2019-05-07T19:19:08.984Z,97234.12
2019-05-07T19:22:15.703Z,97235.67
2019-05-07T19:25:22.476Z,97237.86
2019-05-07T19:28:29.055Z,97235.01
2019-05-07T19:31:35.511Z,97233.44
2019-05-07T19:34:42.100Z,97229.33
2019-05-07T19:37:48.629Z,97227.95
2019-05-07T19:40:55.263Z,97229.28
2019-05-07T19:44:02.083Z,97228.27
2019-05-07T19:47:08.658Z,97222.95
2019-05-07T19:50:15.510Z,97225.66
2019-05-07T19:53:23.452Z,97221.16
2019-05-07T19:56:32.241Z,97220.58
2019-05-07T19:59:38.667Z,97214.47
2019-05-07T20:02:48.140Z,97217.91
2019-05-07T20:05:54.594Z,97217.78
2019-05-07T20:09:09.927Z,97220.50
2019-05-07T20:12:10.966Z,97219.51
2019-05-07T20:15:17.721Z,97219.83
2019-05-07T20:18:24.570Z,97213.27
2019-05-07T20:21:32.607Z,97217.41
2019-05-07T20:24:39.335Z,97211.02
2019-05-07T20:27:46.271Z,97206.98
2019-05-07T20:30:56.140Z,97204.68
2019-05-07T20:34:02.346Z,97196.01
2019-05-07T20:37:09.011Z,97190.83
2019-05-07T20:40:15.570Z,97186.58
2019-05-07T20:43:23.142Z,97191.19
2019-05-07T20:46:31.760Z,97181.01
2019-05-07T20:49:38.750Z,97182.09
2019-05-07T20:52:45.394Z,97176.40
2019-05-07T20:56:02.253Z,97188.64
2019-05-07T20:59:08.909Z,97185.67
2019-05-07T21:02:15.444Z,97181.23
2019-05-07T21:05:22.771Z,97179.80
2019-05-07T21:08:29.512Z,97173.00
2019-05-07T21:11:36.010Z,97176.02
2019-05-07T21:14:42.587Z,97171.05
2019-05-07T21:17:53.361Z,97170.83
2019-05-07T21:21:02.128Z,97169.33
2019-05-07T21:24:09.261Z,97165.97
2019-05-07T21:27:15.715Z,97163.65
2019-05-07T21:30:22.431Z,97165.08
2019-05-07T21:33:28.738Z,97161.59
2019-05-07T21:36:35.210Z,97154.98
2019-05-07T21:39:42.421Z,97154.84
2019-05-07T21:42:48.981Z,97157.52
2019-05-07T21:45:55.492Z,97158.34
2019-05-07T21:49:02.754Z,97152.70
2019-05-07T21:52:09.364Z,97151.43
2019-05-07T21:55:28.632Z,97150.84
2019-05-07T21:58:46.658Z,97146.28
2019-05-07T22:01:57.204Z,97151.64
2019-05-07T22:05:03.953Z,97150.50
2019-05-07T22:08:12.438Z,97141.83
2019-05-07T22:11:18.584Z,97141.74
2019-05-07T22:14:25.220Z,97148.08
2019-05-07T22:17:31.611Z,97138.02
2019-05-07T22:20:37.958Z,97140.81
2019-05-07T22:23:45.590Z,97141.55
2019-05-07T22:26:52.126Z,97138.73
2019-05-07T22:29:58.544Z,97145.83
2019-05-07T22:33:12.893Z,97137.31
2019-05-07T22:36:21.838Z,97139.91
2019-05-07T22:39:35.292Z,97138.75
2019-05-07T22:42:43.327Z,97139.27
2019-05-07T22:45:49.971Z,97131.09
2019-05-07T22:48:56.441Z,97130.64
2019-05-07T22:52:02.898Z,97132.82
2019-05-07T22:55:13.958Z,97126.62
2019-05-07T22:58:27.818Z,97117.30
2019-05-07T23:01:34.305Z,97103.77
2019-05-07T23:04:43.099Z,97102.84
2019-05-07T23:07:49.211Z,97096.92
2019-05-07T23:10:55.765Z,97085.51
2019-05-07T23:14:02.689Z,97086.32
2019-05-07T23:17:12.480Z,97080.51
2019-05-07T23:20:18.448Z,97069.26
2019-05-07T23:23:25.094Z,97068.48
2019-05-07T23:26:46.991Z,97069.98
2019-05-07T23:29:41.808Z,97070.56
2019-05-07T23:32:49.239Z,97062.03
2019-05-07T23:35:55.670Z,97057.27
2019-05-07T23:39:02.650Z,97054.48
2019-05-07T23:42:15.320Z,97049.33
2019-05-07T23:45:22.170Z,97048.38
2019-05-07T23:48:28.966Z,97048.92
2019-05-07T23:51:35.694Z,97043.58
2019-05-07T23:54:42.597Z,97043.20
2019-05-07T23:57:52.394Z,97035.22
